Time;durP1;ratioP1;P1;durP2;ratioP2;P2;SDS_P1;SDS_P2;PMS_P1;PMS_P2;Temp;Humidity;BMP_temperature;BMP_pressure;BME280_temperature;BME280_humidity;BME280_pressure;Samples;Min_cycle;Max_cycle;Signal;HPM_P1;HPM_P2
2024/03/17 00:04:02;;;;;;;5.00;4.23;;;11.90;43.10;;;;;;10376086;28;20256;-74
2024/03/17 00:09:06;;;;;;;4.80;4.07;;;11.80;43.10;;;;;;10365666;28;20225;-74
2024/03/17 00:14:09;;;;;;;4.60;4.20;;;11.90;43.20;;;;;;10354337;28;20271;-74
2024/03/17 00:19:12;;;;;;;3.93;3.60;;;11.90;43.30;;;;;;10354196;28;20324;-74
2024/03/17 00:24:14;;;;;;;3.63;3.27;;;11.90;43.30;;;;;;10346560;28;20687;-75
2024/03/17 00:29:17;;;;;;;3.87;3.57;;;11.90;43.20;;;;;;10366090;28;20261;-74
2024/03/17 00:34:20;;;;;;;3.30;3.10;;;12.00;43.40;;;;;;10356424;28;20368;-74
2024/03/17 00:39:22;;;;;;;3.73;3.43;;;12.00;43.20;;;;;;10355493;28;20304;-74
2024/03/17 00:44:26;;;;;;;3.60;3.30;;;12.10;43.20;;;;;;10367206;28;20265;-74
2024/03/17 00:49:28;;;;;;;3.77;3.47;;;12.10;43.20;;;;;;10363614;28;20261;-75
2024/03/17 00:54:30;;;;;;;3.50;3.30;;;12.10;42.90;;;;;;10393304;28;20249;-75
2024/03/17 00:59:34;;;;;;;3.63;3.33;;;12.10;42.90;;;;;;10358721;28;20253;-75
2024/03/17 01:04:36;;;;;;;3.83;3.53;;;12.10;42.90;;;;;;10372402;28;20253;-75
2024/03/17 01:09:38;;;;;;;4.17;3.67;;;12.10;42.80;;;;;;10387955;28;20245;-75
2024/03/17 01:14:42;;;;;;;3.57;3.27;;;12.10;42.60;;;;;;10389351;28;20234;-75
2024/03/17 01:19:44;;;;;;;4.37;3.97;;;12.10;42.60;;;;;;10391429;28;20316;-75
2024/03/17 01:24:46;;;;;;;4.30;3.90;;;12.00;42.40;;;;;;10373971;28;20257;-75
2024/03/17 01:29:50;;;;;;;3.90;3.60;;;11.90;42.30;;;;;;10355875;28;20253;-75
2024/03/17 01:34:52;;;;;;;3.83;3.50;;;11.90;42.40;;;;;;10363282;28;20278;-75
2024/03/17 01:39:54;;;;;;;4.87;3.90;;;11.80;42.20;;;;;;10377106;28;20259;-75
2024/03/17 01:44:58;;;;;;;5.00;3.50;;;11.80;42.20;;;;;;10354777;28;20242;-75
2024/03/17 01:50:00;;;;;;;4.30;3.90;;;11.80;42.30;;;;;;10371832;28;20282;-75
2024/03/17 01:55:04;;;;;;;4.07;3.67;;;11.70;42.20;;;;;;10382675;28;20253;-75
2024/03/17 02:00:09;;;;;;;3.97;3.50;;;11.70;42.10;;;;;;10359986;28;20621;-75
2024/03/17 02:05:11;;;;;;;4.27;3.90;;;11.60;42.00;;;;;;10355766;28;20254;-75
2024/03/17 02:10:14;;;;;;;4.57;3.73;;;11.50;41.60;;;;;;10353998;28;20312;-74
2024/03/17 02:15:18;;;;;;;4.37;3.73;;;11.40;41.70;;;;;;10375085;28;20255;-75
2024/03/17 02:20:24;;;;;;;3.70;3.33;;;11.30;42.10;;;;;;10361026;28;20254;-75
2024/03/17 02:25:28;;;;;;;3.73;3.43;;;11.20;42.20;;;;;;10357485;28;20301;-75
2024/03/17 02:30:30;;;;;;;3.97;3.67;;;11.20;42.30;;;;;;10355691;28;20782;-75
2024/03/17 02:35:32;;;;;;;4.20;3.90;;;11.20;41.90;;;;;;10349160;28;20253;-75
2024/03/17 02:40:36;;;;;;;4.57;4.07;;;11.10;41.80;;;;;;10357602;28;20246;-74
2024/03/17 02:45:38;;;;;;;4.27;3.83;;;11.00;41.80;;;;;;10358755;28;20304;-75
2024/03/17 02:50:40;;;;;;;4.63;4.10;;;10.80;41.70;;;;;;10358548;28;20300;-75
2024/03/17 02:55:44;;;;;;;4.03;3.73;;;10.60;41.90;;;;;;10355461;28;20272;-75
2024/03/17 03:00:46;;;;;;;3.60;3.30;;;10.50;42.10;;;;;;10358925;28;20252;-75
2024/03/17 03:05:48;;;;;;;3.80;3.50;;;10.30;42.30;;;;;;10353465;28;20257;-75
2024/03/17 03:10:52;;;;;;;3.97;3.67;;;10.30;42.20;;;;;;10355742;28;20369;-75
2024/03/17 03:15:54;;;;;;;3.30;3.10;;;10.20;42.20;;;;;;10348293;28;20222;-75
2024/03/17 03:20:56;;;;;;;4.20;3.90;;;10.10;42.30;;;;;;10353405;28;20246;-75
2024/03/17 03:26:02;;;;;;;3.80;3.50;;;10.10;42.40;;;;;;10354004;28;20250;-75
2024/03/17 03:31:06;;;;;;;3.73;3.43;;;10.10;42.50;;;;;;10350465;28;20276;-75
2024/03/17 03:36:10;;;;;;;3.23;3.03;;;10.20;42.40;;;;;;10341928;28;20280;-75
2024/03/17 03:41:16;;;;;;;3.67;3.37;;;10.20;42.40;;;;;;10346930;28;20293;-75
2024/03/17 03:46:19;;;;;;;3.33;3.03;;;10.20;42.40;;;;;;10349100;28;20278;-75
2024/03/17 03:51:21;;;;;;;4.13;3.80;;;10.20;42.10;;;;;;10345919;28;20246;-75
2024/03/17 03:56:25;;;;;;;4.20;3.90;;;10.20;42.00;;;;;;10371417;28;20257;-75
2024/03/17 04:01:27;;;;;;;4.20;3.90;;;10.20;42.10;;;;;;10357045;28;20263;-75
2024/03/17 04:06:30;;;;;;;3.63;3.40;;;10.20;42.00;;;;;;10359016;28;20320;-75
2024/03/17 04:11:33;;;;;;;4.03;3.73;;;10.10;42.10;;;;;;10373815;28;20630;-75
2024/03/17 04:16:36;;;;;;;3.90;3.60;;;10.10;42.40;;;;;;10355744;28;20246;-75
2024/03/17 04:21:38;;;;;;;4.70;4.30;;;10.00;42.20;;;;;;10342264;28;20249;-75
2024/03/17 04:26:43;;;;;;;4.27;3.97;;;10.00;42.40;;;;;;10355339;28;20292;-75
2024/03/17 04:31:48;;;;;;;4.83;4.40;;;9.90;43.60;;;;;;10351359;28;20931;-75
2024/03/17 04:36:50;;;;;;;4.53;4.17;;;10.00;42.70;;;;;;10381969;28;20304;-75
2024/03/17 04:41:54;;;;;;;4.03;3.67;;;10.00;42.70;;;;;;10389867;28;20307;-75
2024/03/17 04:46:56;;;;;;;5.17;4.77;;;10.00;42.80;;;;;;10391271;28;20296;-75
2024/03/17 04:51:58;;;;;;;5.37;4.87;;;10.10;42.70;;;;;;10390540;28;20715;-75
2024/03/17 04:57:02;;;;;;;6.03;5.53;;;10.10;42.70;;;;;;10387060;28;20249;-75
2024/03/17 05:02:05;;;;;;;5.30;4.90;;;10.10;42.90;;;;;;10393281;28;20242;-75
2024/03/17 05:07:07;;;;;;;6.30;5.70;;;10.10;42.70;;;;;;10389487;28;20331;-74
2024/03/17 05:12:11;;;;;;;5.33;4.83;;;10.00;42.80;;;;;;10399609;28;20312;-74
2024/03/17 05:17:13;;;;;;;5.43;4.13;;;10.00;43.10;;;;;;10396583;28;20777;-75
2024/03/17 05:22:15;;;;;;;5.20;4.80;;;10.00;43.10;;;;;;10393894;28;20283;-75
2024/03/17 05:27:19;;;;;;;4.40;4.03;;;10.10;43.20;;;;;;10395772;28;20288;-75
2024/03/17 05:32:21;;;;;;;4.83;4.43;;;10.10;43.20;;;;;;10394941;28;20244;-75
2024/03/17 05:37:23;;;;;;;5.23;4.73;;;10.20;43.20;;;;;;10392466;28;20222;-75
2024/03/17 05:42:27;;;;;;;4.83;4.43;;;10.20;43.10;;;;;;10391281;28;20269;-75
2024/03/17 05:47:30;;;;;;;5.30;4.90;;;10.20;43.20;;;;;;10393469;28;20315;-75
2024/03/17 05:52:32;;;;;;;5.43;4.93;;;10.20;43.00;;;;;;10401988;28;20257;-75
2024/03/17 05:57:35;;;;;;;5.10;4.70;;;10.20;42.80;;;;;;10402960;28;20304;-75
2024/03/17 06:02:38;;;;;;;5.67;5.20;;;10.20;42.90;;;;;;10394310;28;20253;-75
2024/03/17 06:07:40;;;;;;;5.23;4.83;;;10.00;42.90;;;;;;10394562;28;20253;-75
2024/03/17 06:12:43;;;;;;;4.93;4.53;;;9.90;43.90;;;;;;10398904;28;20246;-75
2024/03/17 06:17:46;;;;;;;5.13;4.73;;;9.80;44.20;;;;;;10397885;28;20241;-75
2024/03/17 06:22:48;;;;;;;6.50;5.90;;;9.70;44.30;;;;;;10400272;28;20253;-75
2024/03/17 06:27:52;;;;;;;6.27;5.73;;;9.70;44.50;;;;;;10400246;28;20237;-75
2024/03/17 06:32:54;;;;;;;6.10;5.60;;;9.70;44.70;;;;;;10398760;28;20249;-75
2024/03/17 06:37:59;;;;;;;5.90;5.40;;;9.80;44.70;;;;;;10399170;28;20242;-75
2024/03/17 06:43:03;;;;;;;6.90;6.20;;;9.90;44.90;;;;;;10396143;28;20295;-75
2024/03/17 06:48:06;;;;;;;6.43;5.90;;;9.90;45.00;;;;;;10393009;28;20245;-75
2024/03/17 06:53:10;;;;;;;6.50;5.90;;;10.00;43.90;;;;;;10393325;28;20253;-75
2024/03/17 06:58:14;;;;;;;6.23;5.67;;;10.10;44.00;;;;;;10400092;28;20260;-75
2024/03/17 07:03:16;;;;;;;8.47;5.37;;;10.10;44.10;;;;;;10392640;28;21033;-75
2024/03/17 07:08:19;;;;;;;5.87;5.37;;;10.20;44.00;;;;;;10395080;28;20303;-75
2024/03/17 07:13:22;;;;;;;5.73;5.23;;;10.30;44.10;;;;;;10392155;28;20254;-76
2024/03/17 07:18:26;;;;;;;5.37;4.90;;;10.40;44.50;;;;;;10391731;28;20246;-75
2024/03/17 07:23:28;;;;;;;5.67;5.17;;;10.40;44.40;;;;;;10393559;28;20295;-75
2024/03/17 07:28:32;;;;;;;5.90;5.40;;;10.50;44.30;;;;;;10389672;28;20250;-75
2024/03/17 07:33:34;;;;;;;5.83;5.33;;;10.60;44.50;;;;;;10384412;28;20227;-75
2024/03/17 07:38:37;;;;;;;6.70;6.10;;;10.60;44.10;;;;;;10382183;28;20299;-75
2024/03/17 07:43:40;;;;;;;6.97;6.37;;;10.70;44.30;;;;;;10392862;28;20260;-75
2024/03/17 07:48:44;;;;;;;7.80;7.10;;;10.80;45.00;;;;;;10391895;28;20257;-75
2024/03/17 07:53:48;;;;;;;8.30;7.50;;;10.90;45.10;;;;;;10369332;28;20243;-75
2024/03/17 07:58:51;;;;;;;7.83;7.13;;;11.00;45.20;;;;;;10351472;28;20268;-75
2024/03/17 08:03:55;;;;;;;8.40;7.60;;;11.20;45.80;;;;;;10356030;28;20794;-75
2024/03/17 08:08:59;;;;;;;8.70;7.80;;;11.30;45.70;;;;;;10379545;28;20257;-75
2024/03/17 08:14:02;;;;;;;9.07;8.10;;;11.50;46.00;;;;;;10369727;28;20290;-75
2024/03/17 08:19:06;;;;;;;8.33;7.53;;;11.70;46.00;;;;;;10384262;28;20699;-75
2024/03/17 08:24:09;;;;;;;9.57;8.43;;;11.90;45.90;;;;;;10380906;28;20319;-75
2024/03/17 08:29:12;;;;;;;8.60;7.73;;;12.10;45.20;;;;;;10381746;28;20249;-75
2024/03/17 08:34:14;;;;;;;9.00;8.10;;;12.20;45.30;;;;;;10387081;28;20252;-75
2024/03/17 08:39:17;;;;;;;8.80;8.00;;;12.40;45.50;;;;;;10391769;28;20276;-75
2024/03/17 08:44:20;;;;;;;8.57;7.77;;;12.60;45.40;;;;;;10387933;28;20245;-75
2024/03/17 08:49:22;;;;;;;8.47;7.67;;;12.80;45.20;;;;;;10387294;28;20246;-76
2024/03/17 08:54:25;;;;;;;8.70;7.87;;;13.00;45.10;;;;;;10389226;28;20237;-75
2024/03/17 08:59:29;;;;;;;8.13;7.43;;;13.20;45.30;;;;;;10389134;28;20256;-76
2024/03/17 09:04:32;;;;;;;8.47;7.73;;;13.40;44.90;;;;;;10391349;28;20261;-75
2024/03/17 09:09:34;;;;;;;8.53;7.77;;;13.60;44.90;;;;;;10390930;28;20257;-75
2024/03/17 09:14:38;;;;;;;8.73;7.87;;;13.90;44.90;;;;;;10402412;28;20242;-75
2024/03/17 09:19:41;;;;;;;7.83;7.23;;;14.10;43.60;;;;;;10383609;28;20295;-75
2024/03/17 09:24:43;;;;;;;7.90;7.20;;;14.30;43.70;;;;;;10387169;28;20254;-75
2024/03/17 09:29:48;;;;;;;8.20;7.50;;;14.40;43.80;;;;;;10360054;28;20258;-76
2024/03/17 09:34:50;;;;;;;8.47;7.67;;;14.60;44.00;;;;;;10343339;28;20250;-75
2024/03/17 09:39:53;;;;;;;7.13;6.53;;;14.90;43.60;;;;;;10343093;28;20266;-75
2024/03/17 09:44:57;;;;;;;7.27;6.57;;;15.00;43.40;;;;;;10343926;28;20317;-75
2024/03/17 09:49:59;;;;;;;7.70;6.97;;;15.10;43.20;;;;;;10378295;28;20796;-75
2024/03/17 09:55:09;;;;;;;7.20;6.60;;;15.30;43.30;;;;;;10369767;28;20718;-76
2024/03/17 10:00:15;;;;;;;6.70;6.20;;;15.40;43.00;;;;;;10383312;28;20329;-75
2024/03/17 10:05:22;;;;;;;8.03;6.43;;;15.60;41.70;;;;;;10340004;28;20313;-75
2024/03/17 10:10:24;;;;;;;6.30;5.63;;;15.70;41.20;;;;;;10366086;28;20724;-75
2024/03/17 10:15:29;;;;;;;7.20;6.50;;;15.80;41.80;;;;;;10344802;28;20246;-75
2024/03/17 10:20:31;;;;;;;5.73;5.23;;;15.90;40.90;;;;;;10356988;28;20245;-75
2024/03/17 10:25:36;;;;;;;6.53;5.20;;;16.00;41.60;;;;;;10345657;28;20297;-75
2024/03/17 10:30:40;;;;;;;4.40;4.03;;;16.10;41.50;;;;;;10355442;28;20269;-76
2024/03/17 10:35:42;;;;;;;4.73;4.30;;;16.20;39.40;;;;;;10349969;28;20254;-75
2024/03/17 10:40:45;;;;;;;5.03;4.63;;;16.20;40.20;;;;;;10357691;28;20313;-75
2024/03/17 10:45:49;;;;;;;5.00;4.43;;;16.30;40.10;;;;;;10354813;28;20308;-75
2024/03/17 10:50:53;;;;;;;4.93;4.10;;;16.30;39.30;;;;;;10351352;28;20254;-75
2024/03/17 10:56:05;;;;;;;5.30;4.80;;;16.40;40.10;;;;;;10375551;28;20675;-75
2024/03/17 11:01:14;;;;;;;5.10;4.60;;;16.50;38.10;;;;;;10382186;28;20255;-75
2024/03/17 11:06:18;;;;;;;5.03;4.53;;;16.50;38.60;;;;;;10353116;28;20250;-74
2024/03/17 11:11:39;;;;;;;4.60;4.20;;;16.70;39.80;;;;;;10352178;28;20750;-75
2024/03/17 11:16:43;;;;;;;5.07;4.57;;;16.80;38.40;;;;;;10373725;28;20248;-74
2024/03/17 11:21:45;;;;;;;4.63;4.33;;;16.90;39.10;;;;;;10383967;28;20927;-74
2024/03/17 11:26:48;;;;;;;4.83;4.43;;;16.90;38.80;;;;;;10387110;28;20264;-74
2024/03/17 11:31:55;;;;;;;5.10;4.70;;;16.90;38.60;;;;;;10347058;28;20257;-74
2024/03/17 11:36:58;;;;;;;5.00;4.60;;;16.90;37.60;;;;;;10346063;28;20246;-74
2024/03/17 11:42:10;;;;;;;4.37;4.07;;;16.80;38.10;;;;;;10345401;28;20254;-74
2024/03/17 11:47:16;;;;;;;3.93;3.63;;;16.70;38.10;;;;;;10344358;28;20250;-75
2024/03/17 11:52:20;;;;;;;4.70;4.30;;;16.80;38.60;;;;;;10348657;28;20269;-74
2024/03/17 11:57:24;;;;;;;3.50;3.20;;;16.90;38.60;;;;;;10343365;28;20238;-74
2024/03/17 12:02:30;;;;;;;3.50;3.20;;;17.10;39.10;;;;;;10348373;28;20238;-74
2024/03/17 12:07:33;;;;;;;3.90;3.60;;;17.30;37.70;;;;;;10344711;28;20269;-74
2024/03/17 12:12:35;;;;;;;3.77;3.27;;;17.40;39.30;;;;;;10351464;28;20257;-74
2024/03/17 12:17:39;;;;;;;3.53;3.30;;;17.40;38.10;;;;;;10343109;28;20239;-74
2024/03/17 12:22:42;;;;;;;4.10;3.70;;;17.40;37.00;;;;;;10345318;28;20616;-74
2024/03/17 12:27:45;;;;;;;3.83;3.53;;;17.40;37.40;;;;;;10344565;28;21023;-74
2024/03/17 12:32:50;;;;;;;3.40;3.10;;;17.30;37.30;;;;;;10344421;28;20258;-74
2024/03/17 12:37:52;;;;;;;4.10;3.70;;;17.30;37.00;;;;;;10341408;28;20245;-75
2024/03/17 12:42:54;;;;;;;3.23;2.93;;;17.40;37.90;;;;;;10339460;28;20254;-74
2024/03/17 12:47:58;;;;;;;3.90;3.37;;;17.40;37.50;;;;;;10346351;28;20258;-74
2024/03/17 12:53:01;;;;;;;3.27;2.97;;;17.50;36.60;;;;;;10347888;28;20246;-74
2024/03/17 13:03:33;;;;;;;2.90;2.70;;;17.50;35.10;;;;;;10389373;28;20615;-73
2024/03/17 13:08:36;;;;;;;3.60;3.30;;;17.50;36.00;;;;;;10376699;28;20249;-73
2024/03/17 13:13:38;;;;;;;3.60;3.30;;;17.50;36.70;;;;;;10377322;28;20241;-73
2024/03/17 13:18:43;;;;;;;3.60;3.20;;;17.50;36.30;;;;;;10375230;28;20264;-73
2024/03/17 13:23:45;;;;;;;3.60;3.30;;;17.40;35.30;;;;;;10376569;28;20309;-73
2024/03/17 13:28:47;;;;;;;5.33;3.30;;;17.40;36.70;;;;;;10374650;28;20802;-73
2024/03/17 13:33:51;;;;;;;3.30;3.00;;;17.40;36.20;;;;;;10370333;28;20503;-73
2024/03/17 13:38:54;;;;;;;3.60;3.03;;;17.40;35.40;;;;;;10394161;28;20818;-73
2024/03/17 13:43:57;;;;;;;3.03;2.73;;;17.40;36.10;;;;;;10374952;28;20307;-74
2024/03/17 13:49:08;;;;;;;3.30;2.97;;;17.40;36.50;;;;;;10382324;28;20637;-74
2024/03/17 13:54:10;;;;;;;4.47;3.37;;;17.50;34.40;;;;;;10371662;28;20464;-74
2024/03/17 13:59:12;;;;;;;2.97;2.73;;;17.60;36.00;;;;;;10376403;28;20611;-74
2024/03/17 14:04:18;;;;;;;2.93;2.73;;;17.60;36.00;;;;;;10381093;28;20256;-74
2024/03/17 14:09:22;;;;;;;3.60;2.60;;;17.70;34.50;;;;;;10383601;28;20252;-74
2024/03/17 14:14:25;;;;;;;3.10;2.80;;;17.60;35.60;;;;;;10375701;28;20313;-74
2024/03/17 14:19:28;;;;;;;2.60;2.40;;;17.60;35.50;;;;;;10378986;28;20336;-74
2024/03/17 14:24:30;;;;;;;3.13;2.83;;;17.60;34.80;;;;;;10380323;28;20283;-74
2024/03/17 14:29:33;;;;;;;2.53;2.33;;;17.60;34.50;;;;;;10384704;28;20253;-74
2024/03/17 14:34:38;;;;;;;2.70;2.50;;;17.50;35.40;;;;;;10387848;28;20241;-74
2024/03/17 14:39:40;;;;;;;3.63;2.57;;;17.50;34.80;;;;;;10388528;28;20249;-74
2024/03/17 14:44:42;;;;;;;3.03;2.83;;;17.50;35.00;;;;;;10380762;28;20321;-74
2024/03/17 14:49:46;;;;;;;2.90;2.53;;;17.60;34.60;;;;;;10379183;28;20249;-74
2024/03/17 14:54:51;;;;;;;3.37;2.40;;;17.50;34.30;;;;;;10380437;28;20310;-75
2024/03/17 14:59:53;;;;;;;3.50;3.20;;;17.50;34.90;;;;;;10382790;28;20265;-73
2024/03/17 15:04:57;;;;;;;4.17;3.10;;;17.40;34.30;;;;;;10405813;28;20248;-74
2024/03/17 15:09:59;;;;;;;2.60;2.40;;;17.30;34.10;;;;;;10384219;28;20253;-75
2024/03/17 15:15:01;;;;;;;2.67;2.20;;;17.20;34.30;;;;;;10384364;28;20249;-77
2024/03/17 15:20:16;;;;;;;2.83;2.60;;;17.10;34.60;;;;;;10395167;28;20271;-75
2024/03/17 15:25:19;;;;;;;3.37;3.07;;;17.10;34.00;;;;;;10390007;28;20268;-75
2024/03/17 15:30:25;;;;;;;2.50;2.30;;;17.10;35.00;;;;;;10392741;28;20312;-76
2024/03/17 15:35:31;;;;;;;2.23;2.03;;;17.20;35.00;;;;;;10389551;28;20245;-75
2024/03/17 15:40:33;;;;;;;2.67;2.10;;;17.20;34.50;;;;;;10384840;28;20644;-75
2024/03/17 15:45:37;;;;;;;1.90;1.80;;;17.20;34.90;;;;;;10385919;28;20315;-75
2024/03/17 15:50:42;;;;;;;1.90;1.67;;;17.30;34.50;;;;;;10385690;28;20256;-75
2024/03/17 15:55:45;;;;;;;2.10;2.00;;;17.30;34.60;;;;;;10384809;28;20260;-75
2024/03/17 16:00:47;;;;;;;3.33;2.47;;;17.30;35.60;;;;;;10379527;28;20261;-75
2024/03/17 16:05:52;;;;;;;2.27;2.07;;;17.30;34.70;;;;;;10380081;28;20257;-75
2024/03/17 16:10:58;;;;;;;2.90;2.30;;;17.30;34.10;;;;;;10375846;28;20312;-73
2024/03/17 16:16:01;;;;;;;2.40;2.20;;;17.30;34.10;;;;;;10367110;28;20313;-74
2024/03/17 16:21:08;;;;;;;2.40;2.20;;;17.30;34.60;;;;;;10370963;28;20270;-74
2024/03/17 16:26:13;;;;;;;3.60;2.70;;;17.30;33.60;;;;;;10375958;28;20730;-73
2024/03/17 16:31:15;;;;;;;3.10;2.10;;;17.30;34.10;;;;;;10372665;28;20562;-74
2024/03/17 16:36:20;;;;;;;3.20;2.80;;;17.30;35.20;;;;;;10372630;28;20308;-73
2024/03/17 16:41:22;;;;;;;2.83;2.53;;;17.30;34.20;;;;;;10369821;28;20734;-73
2024/03/17 16:46:58;;;;;;;3.17;2.80;;;17.30;34.90;;;;;;10375813;28;20300;-73
2024/03/17 16:52:02;;;;;;;3.53;3.23;;;17.20;34.00;;;;;;10394162;28;20249;-73
2024/03/17 16:57:05;;;;;;;7.53;3.07;;;17.20;34.10;;;;;;10374123;28;20241;-74
2024/03/17 17:02:14;;;;;;;4.33;2.70;;;17.20;35.70;;;;;;10383052;28;20321;-74
2024/03/17 17:07:18;;;;;;;4.43;2.60;;;17.20;34.00;;;;;;10387852;28;20253;-75
2024/03/17 17:12:20;;;;;;;4.20;2.37;;;17.20;34.80;;;;;;10380633;28;20294;-76
2024/03/17 17:17:22;;;;;;;3.13;2.20;;;17.30;35.10;;;;;;10382996;28;20253;-76
2024/03/17 17:22:26;;;;;;;2.77;2.30;;;17.20;35.00;;;;;;10380817;28;20697;-76
2024/03/17 17:27:30;;;;;;;3.30;2.30;;;17.20;34.90;;;;;;10364900;28;20258;-77
2024/03/17 17:32:34;;;;;;;3.10;2.90;;;17.20;35.20;;;;;;10360697;28;20263;-76
2024/03/17 17:37:38;;;;;;;4.70;3.60;;;17.10;35.20;;;;;;10365847;28;20266;-76
2024/03/17 17:42:40;;;;;;;2.77;2.57;;;17.10;35.20;;;;;;10351579;28;20249;-76
2024/03/17 17:47:42;;;;;;;2.63;2.10;;;16.90;35.30;;;;;;10361837;28;20254;-76
2024/03/17 17:52:46;;;;;;;3.00;2.30;;;16.80;35.50;;;;;;10386055;28;20295;-76
2024/03/17 17:57:48;;;;;;;5.90;2.07;;;16.80;35.80;;;;;;10395384;28;20263;-76
2024/03/17 18:02:51;;;;;;;3.00;1.80;;;16.70;36.00;;;;;;10393075;28;20250;-76
2024/03/17 18:07:54;;;;;;;2.23;1.67;;;16.70;36.00;;;;;;10401702;28;20730;-76
2024/03/17 18:12:56;;;;;;;2.53;1.77;;;16.60;35.90;;;;;;10384710;28;20218;-76
2024/03/17 18:17:58;;;;;;;1.60;1.50;;;16.60;36.00;;;;;;10381069;28;20288;-76
2024/03/17 18:23:03;;;;;;;1.60;1.40;;;16.50;35.90;;;;;;10359959;28;20238;-76
2024/03/17 18:28:06;;;;;;;1.80;1.70;;;16.40;35.90;;;;;;10355582;28;20250;-76
2024/03/17 18:33:08;;;;;;;3.07;1.60;;;16.30;36.00;;;;;;10361490;28;20334;-75
2024/03/17 18:38:13;;;;;;;2.17;1.50;;;16.30;36.20;;;;;;10369043;28;20256;-76
2024/03/17 18:43:16;;;;;;;1.50;1.40;;;16.20;36.40;;;;;;10377783;28;20783;-76
2024/03/17 18:48:19;;;;;;;3.63;1.80;;;16.10;36.20;;;;;;10372289;28;20254;-76
2024/03/17 18:53:22;;;;;;;1.77;1.67;;;16.10;36.40;;;;;;10384337;28;20236;-76
2024/03/17 18:58:25;;;;;;;1.80;1.70;;;16.00;36.50;;;;;;10367910;28;20301;-76
2024/03/17 19:03:28;;;;;;;2.50;2.10;;;16.00;36.60;;;;;;10388368;28;20300;-76
2024/03/17 19:08:32;;;;;;;1.83;1.73;;;16.00;36.70;;;;;;10366988;28;20258;-76
2024/03/17 19:13:36;;;;;;;3.17;2.80;;;15.90;36.50;;;;;;10376921;28;20245;-76
2024/03/17 19:18:39;;;;;;;2.47;2.27;;;15.80;36.30;;;;;;10356567;28;20249;-76
2024/03/17 19:23:44;;;;;;;2.90;2.70;;;15.80;36.50;;;;;;10361737;28;20242;-76
2024/03/17 19:28:46;;;;;;;3.97;2.87;;;15.70;36.50;;;;;;10357650;28;20258;-76
2024/03/17 19:33:50;;;;;;;3.20;2.90;;;15.60;36.50;;;;;;10358448;28;20739;-76
2024/03/17 19:38:55;;;;;;;3.40;3.10;;;15.60;36.60;;;;;;10382053;28;20300;-76
2024/03/17 19:43:57;;;;;;;3.17;2.90;;;15.50;36.50;;;;;;10361474;28;20258;-76
2024/03/17 19:49:00;;;;;;;3.63;3.27;;;15.50;36.50;;;;;;10377221;28;20246;-76
2024/03/17 19:54:05;;;;;;;3.53;3.07;;;15.40;36.30;;;;;;10374095;28;20647;-75
2024/03/17 19:59:08;;;;;;;3.83;3.47;;;15.30;36.30;;;;;;10356148;28;20740;-74
2024/03/17 20:04:10;;;;;;;7.03;4.30;;;15.20;36.40;;;;;;10354210;28;20249;-75
2024/03/17 20:09:14;;;;;;;5.93;5.07;;;15.20;36.50;;;;;;10397220;28;20261;-75
2024/03/17 20:14:16;;;;;;;10.27;7.50;;;15.10;36.70;;;;;;10357990;28;20651;-76
2024/03/17 20:19:20;;;;;;;7.37;6.57;;;15.00;36.70;;;;;;10353426;28;20262;-76
2024/03/17 20:24:24;;;;;;;5.97;5.37;;;15.00;36.80;;;;;;10346975;28;20252;-76
2024/03/17 20:29:26;;;;;;;5.30;4.80;;;14.90;36.80;;;;;;10353213;28;20283;-76
2024/03/17 20:34:28;;;;;;;7.63;5.80;;;14.80;36.80;;;;;;10342416;28;20713;-76
2024/03/17 20:39:32;;;;;;;5.57;5.00;;;14.70;37.00;;;;;;10335599;28;20254;-76
2024/03/17 20:44:34;;;;;;;5.23;4.73;;;14.70;37.30;;;;;;10341682;28;20752;-76
2024/03/17 20:49:36;;;;;;;5.23;4.73;;;14.60;37.30;;;;;;10343170;28;20243;-75
2024/03/17 20:54:40;;;;;;;5.07;4.57;;;14.60;37.60;;;;;;10344936;28;20256;-76
2024/03/17 20:59:42;;;;;;;4.60;4.20;;;14.60;37.80;;;;;;10346348;28;20849;-76
2024/03/17 21:04:44;;;;;;;6.87;4.30;;;14.60;37.80;;;;;;10345673;28;20316;-75
2024/03/17 21:09:48;;;;;;;5.77;4.00;;;14.50;37.50;;;;;;10350947;28;21122;-76
2024/03/17 21:14:52;;;;;;;4.63;4.23;;;14.40;37.70;;;;;;10348860;28;20250;-76
2024/03/17 21:19:54;;;;;;;5.63;5.13;;;14.40;38.00;;;;;;10342791;28;20359;-76
2024/03/17 21:24:58;;;;;;;5.90;5.40;;;14.30;37.80;;;;;;10370795;28;20981;-76
2024/03/17 21:30:00;;;;;;;8.33;6.73;;;14.30;38.10;;;;;;10391912;28;20253;-76
2024/03/17 21:35:03;;;;;;;7.30;5.50;;;14.40;38.00;;;;;;10384468;28;20264;-75
2024/03/17 21:40:11;;;;;;;7.57;6.77;;;14.30;37.90;;;;;;10382304;28;20249;-75
2024/03/17 21:45:13;;;;;;;6.53;5.57;;;14.30;38.10;;;;;;10389730;28;20273;-75
2024/03/17 21:50:17;;;;;;;6.50;5.80;;;14.20;38.00;;;;;;10384846;28;20276;-76
2024/03/17 21:55:21;;;;;;;6.07;5.13;;;14.20;38.00;;;;;;10366320;28;20258;-76
2024/03/17 22:00:28;;;;;;;7.83;5.30;;;14.10;38.20;;;;;;10373436;28;20250;-75
2024/03/17 22:05:30;;;;;;;5.60;5.10;;;14.10;38.20;;;;;;10353606;28;20687;-76
2024/03/17 22:10:35;;;;;;;7.50;5.67;;;14.10;38.20;;;;;;10345211;28;20238;-76
2024/03/17 22:15:37;;;;;;;6.57;5.83;;;14.10;38.50;;;;;;10358550;28;24022;-76
2024/03/17 22:20:39;;;;;;;7.57;6.37;;;14.10;38.20;;;;;;10343723;28;20246;-76
2024/03/17 22:25:43;;;;;;;6.60;5.93;;;14.10;38.40;;;;;;10349006;28;20246;-75
2024/03/17 22:30:51;;;;;;;6.93;6.23;;;14.10;38.60;;;;;;10352657;28;20258;-75
2024/03/17 22:35:58;;;;;;;6.70;6.10;;;14.10;38.90;;;;;;10350132;28;20218;-75
2024/03/17 22:41:03;;;;;;;5.73;5.23;;;14.10;38.70;;;;;;10358739;28;20246;-76
2024/03/17 22:46:06;;;;;;;5.97;5.33;;;14.10;38.70;;;;;;10369516;28;20265;-75
2024/03/17 22:51:10;;;;;;;6.40;5.80;;;14.10;38.60;;;;;;10352161;28;20246;-75
2024/03/17 22:56:13;;;;;;;5.10;4.70;;;14.10;38.50;;;;;;10351857;28;20597;-75
2024/03/17 23:01:16;;;;;;;6.33;5.73;;;14.00;38.50;;;;;;10357802;28;20273;-75
2024/03/17 23:06:18;;;;;;;5.30;4.80;;;14.00;38.40;;;;;;10350821;28;20255;-75
2024/03/17 23:11:22;;;;;;;7.07;6.17;;;14.00;38.50;;;;;;10344850;28;20316;-75
2024/03/17 23:16:24;;;;;;;14.27;8.93;;;14.00;38.70;;;;;;10350137;28;20263;-75
2024/03/17 23:21:27;;;;;;;11.07;7.57;;;14.00;38.60;;;;;;10348026;28;20258;-76
2024/03/17 23:26:30;;;;;;;7.60;6.60;;;13.90;38.60;;;;;;10351534;28;20238;-75
2024/03/17 23:31:34;;;;;;;8.03;5.73;;;13.90;38.70;;;;;;10355369;28;20709;-76
2024/03/17 23:36:36;;;;;;;5.53;4.70;;;13.90;38.60;;;;;;10352896;28;20256;-75
2024/03/17 23:41:40;;;;;;;5.77;4.90;;;13.90;38.60;;;;;;10351515;28;20284;-75
2024/03/17 23:46:42;;;;;;;8.40;5.93;;;13.90;38.80;;;;;;10352038;28;20250;-75
2024/03/17 23:51:45;;;;;;;10.83;6.63;;;13.90;39.40;;;;;;10348707;28;20787;-75
2024/03/17 23:56:48;;;;;;;10.40;6.70;;;13.80;38.70;;;;;;10353056;28;20304;-76
